createdAt,value
2018-09-03T00:00:45.594Z,836.00
2018-09-03T00:01:45.983Z,836.00
2018-09-03T00:02:46.361Z,836.00
2018-09-03T00:03:46.734Z,835.00
2018-09-03T00:04:46.971Z,835.00
2018-09-03T00:05:47.258Z,836.00
2018-09-03T00:06:47.463Z,835.00
2018-09-03T00:07:47.853Z,835.00
2018-09-03T00:08:48.223Z,835.00
2018-09-03T00:09:47.430Z,835.00
2018-09-03T00:10:48.640Z,835.00
2018-09-03T00:11:48.833Z,835.00
2018-09-03T00:12:49.184Z,835.00
2018-09-03T00:13:49.389Z,835.00
2018-09-03T00:14:50.589Z,835.00
2018-09-03T00:15:49.759Z,835.00
2018-09-03T00:16:50.120Z,835.00
2018-09-03T00:17:50.331Z,835.00
2018-09-03T00:18:50.547Z,835.00
2018-09-03T00:19:50.804Z,835.00
2018-09-03T00:20:51.037Z,834.00
2018-09-03T00:21:51.273Z,835.00
2018-09-03T00:22:51.500Z,835.00
2018-09-03T00:23:51.704Z,835.00
2018-09-03T00:24:51.922Z,835.00
2018-09-03T00:25:52.292Z,835.00
2018-09-03T00:26:51.443Z,834.00
2018-09-03T00:27:52.626Z,835.00
2018-09-03T00:28:52.970Z,834.00
2018-09-03T00:29:53.174Z,834.00
2018-09-03T00:30:53.583Z,834.00
2018-09-03T00:31:53.755Z,834.00
2018-09-03T00:32:54.071Z,834.00
2018-09-03T00:33:54.272Z,834.00
2018-09-03T00:34:55.002Z,834.00
2018-09-03T00:35:55.165Z,834.00
2018-09-03T00:36:55.373Z,834.00
2018-09-03T00:37:55.593Z,836.00
2018-09-03T00:38:55.754Z,840.00
2018-09-03T00:39:56.011Z,838.00
2018-09-03T00:40:56.281Z,836.00
2018-09-03T00:41:56.730Z,835.00
2018-09-03T00:42:56.899Z,836.00
2018-09-03T00:43:57.157Z,835.00
2018-09-03T00:44:57.693Z,835.00
2018-09-03T00:45:57.989Z,836.00
2018-09-03T00:46:06.459Z,835.00
2018-09-03T00:47:07.790Z,837.00
2018-09-03T00:48:08.047Z,837.00
2018-09-03T00:49:08.224Z,836.00
2018-09-03T00:50:09.013Z,837.00
2018-09-03T00:51:09.260Z,837.00
2018-09-03T00:52:09.435Z,841.00
2018-09-03T00:53:09.646Z,841.00
2018-09-03T00:54:09.852Z,841.00
2018-09-03T00:55:10.071Z,841.00
2018-09-03T00:56:10.309Z,841.00
2018-09-03T00:57:10.553Z,841.00
2018-09-03T00:58:11.010Z,840.00
2018-09-03T00:59:11.252Z,836.00
2018-09-03T01:00:11.473Z,836.00
2018-09-03T01:01:11.989Z,838.00
2018-09-03T01:02:12.207Z,840.00
2018-09-03T01:03:12.349Z,840.00
2018-09-03T01:04:12.541Z,842.00
2018-09-03T01:05:13.039Z,842.00
2018-09-03T01:06:13.422Z,842.00
2018-09-03T01:07:13.611Z,841.00
2018-09-03T01:08:14.564Z,838.00
2018-09-03T01:09:14.814Z,830.00
2018-09-03T01:10:14.982Z,828.00
2018-09-03T01:11:15.396Z,826.00
2018-09-03T01:12:15.721Z,836.00
2018-09-03T01:13:16.165Z,836.00
2018-09-03T01:14:16.458Z,836.00
2018-09-03T01:15:16.782Z,835.00
2018-09-03T01:16:17.091Z,835.00
2018-09-03T01:17:17.349Z,835.00
2018-09-03T01:18:17.647Z,835.00
2018-09-03T01:19:17.852Z,835.00
2018-09-03T01:20:18.092Z,835.00
2018-09-03T01:21:18.368Z,835.00
2018-09-03T01:22:18.691Z,835.00
2018-09-03T01:23:19.017Z,835.00
2018-09-03T01:24:19.256Z,835.00
2018-09-03T01:25:19.520Z,834.00
2018-09-03T01:26:19.781Z,835.00
2018-09-03T01:27:20.195Z,835.00
2018-09-03T01:28:20.489Z,835.00
2018-09-03T01:29:20.811Z,835.00
2018-09-03T01:29:29.781Z,835.00
2018-09-03T01:30:29.852Z,835.00
2018-09-03T01:31:31.025Z,835.00
2018-09-03T01:32:30.211Z,834.00
2018-09-03T01:33:31.404Z,834.00
2018-09-03T01:34:31.753Z,835.00
2018-09-03T01:35:32.211Z,834.00
2018-09-03T01:36:32.645Z,835.00
2018-09-03T01:37:32.816Z,836.00
2018-09-03T01:38:33.088Z,835.00
2018-09-03T01:39:33.287Z,836.00
2018-09-03T01:40:33.484Z,836.00
2018-09-03T01:41:33.698Z,835.00
2018-09-03T01:42:33.888Z,835.00
2018-09-03T01:43:34.048Z,834.00
2018-09-03T01:44:34.517Z,835.00
2018-09-03T01:45:33.834Z,835.00
2018-09-03T01:46:35.023Z,835.00
2018-09-03T01:47:35.205Z,834.00
2018-09-03T01:48:35.549Z,834.00
2018-09-03T01:49:35.702Z,834.00
2018-09-03T01:50:35.892Z,834.00
2018-09-03T01:51:36.093Z,834.00
2018-09-03T01:52:36.993Z,834.00
2018-09-03T01:53:37.147Z,835.00
2018-09-03T01:54:37.532Z,835.00
2018-09-03T01:55:37.815Z,836.00
2018-09-03T01:56:38.120Z,840.00
2018-09-03T01:57:38.286Z,836.00
2018-09-03T01:58:38.562Z,836.00
2018-09-03T01:59:38.775Z,836.00
2018-09-03T02:00:38.969Z,835.00
2018-09-03T02:01:39.193Z,835.00
2018-09-03T02:02:39.336Z,835.00
2018-09-03T02:03:39.616Z,834.00
2018-09-03T02:04:39.769Z,834.00
2018-09-03T02:05:39.951Z,834.00
2018-09-03T02:06:40.109Z,834.00
2018-09-03T02:07:40.565Z,835.00
2018-09-03T02:08:40.747Z,834.00
2018-09-03T02:09:40.971Z,835.00
2018-09-03T02:10:41.102Z,834.00
2018-09-03T02:11:41.323Z,834.00
2018-09-03T02:12:41.489Z,835.00
2018-09-03T02:13:41.784Z,835.00
2018-09-03T02:14:42.399Z,835.00
2018-09-03T02:15:42.605Z,835.00
2018-09-03T02:15:51.137Z,835.00
2018-09-03T02:16:52.268Z,835.00
2018-09-03T02:17:52.419Z,834.00
2018-09-03T02:18:52.597Z,834.00
2018-09-03T02:19:52.784Z,834.00
2018-09-03T02:20:53.020Z,834.00
2018-09-03T02:21:53.183Z,834.00
2018-09-03T02:22:53.332Z,834.00
2018-09-03T02:23:53.549Z,834.00
2018-09-03T02:24:53.817Z,835.00
2018-09-03T02:25:54.129Z,836.00
2018-09-03T02:26:54.308Z,836.00
2018-09-03T02:27:54.749Z,835.00
2018-09-03T02:28:54.908Z,836.00
2018-09-03T02:29:55.298Z,836.00
2018-09-03T02:30:55.519Z,835.00
2018-09-03T02:31:56.452Z,836.00
2018-09-03T02:32:56.663Z,836.00
2018-09-03T02:33:57.357Z,836.00
2018-09-03T02:34:57.534Z,836.00
2018-09-03T02:35:57.763Z,836.00
2018-09-03T02:36:58.084Z,836.00
2018-09-03T02:37:58.486Z,840.00
2018-09-03T02:38:58.706Z,841.00
2018-09-03T02:39:58.800Z,841.00
2018-09-03T02:40:58.942Z,840.00
2018-09-03T02:41:59.285Z,837.00
2018-09-03T02:43:00.263Z,836.00
2018-09-03T02:44:00.557Z,836.00
2018-09-03T02:45:00.739Z,836.00
2018-09-03T02:46:01.089Z,835.00
2018-09-03T02:47:01.311Z,835.00
2018-09-03T02:48:01.586Z,835.00
2018-09-03T02:49:01.869Z,835.00
2018-09-03T02:50:02.254Z,835.00
2018-09-03T02:51:02.408Z,835.00
2018-09-03T02:52:02.721Z,835.00
2018-09-03T02:53:02.920Z,835.00
2018-09-03T02:54:03.067Z,835.00
2018-09-03T02:55:02.296Z,835.00
2018-09-03T02:56:03.481Z,835.00
2018-09-03T02:57:03.632Z,835.00
2018-09-03T02:58:04.233Z,835.00
2018-09-03T02:59:04.392Z,835.00
2018-09-03T03:00:04.546Z,834.00
